createdAt,value
2017-05-15T16:17:35.077Z,34784
2017-05-15T16:18:35.788Z,39328
2017-05-15T16:19:36.502Z,39168
2017-05-15T16:20:37.210Z,39616
2017-05-15T16:21:37.923Z,38656
2017-05-15T16:22:38.935Z,39168
2017-05-15T16:23:39.652Z,38592
2017-05-15T16:24:40.366Z,36832
2017-05-15T16:25:41.089Z,34752
2017-05-15T16:26:41.804Z,36000
2017-05-15T16:27:42.720Z,36448
2017-05-15T16:28:43.443Z,36704
2017-05-15T16:29:44.163Z,34816
2017-05-15T16:30:44.880Z,35072
2017-05-15T16:31:45.605Z,28128
2017-05-15T16:32:46.677Z,19232
2017-05-15T16:33:47.400Z,15584
2017-05-15T16:34:48.118Z,15424
2017-05-15T16:35:48.839Z,14976
2017-05-15T16:36:49.557Z,14752
2017-05-15T16:37:50.536Z,14016
2017-05-15T16:38:51.263Z,13840
2017-05-15T16:39:51.993Z,14080
2017-05-15T16:40:52.719Z,13680
2017-05-15T16:41:53.456Z,12564
2017-05-15T16:42:54.481Z,12576
2017-05-15T16:43:55.201Z,12708
2017-05-15T16:44:55.938Z,12072
2017-05-15T16:45:56.663Z,11400
2017-05-15T16:46:57.391Z,11956
2017-05-15T16:47:58.363Z,11536
2017-05-15T16:48:59.095Z,10100
2017-05-15T16:49:59.823Z,10016
2017-05-15T16:51:00.546Z,11108
2017-05-15T16:52:01.262Z,5684
2017-05-15T16:53:02.231Z,6160
2017-05-15T16:54:02.964Z,5732
2017-05-15T16:55:03.681Z,5828
2017-05-15T16:56:04.402Z,5556
2017-05-15T16:57:05.132Z,5484
2017-05-15T16:58:06.115Z,9676
2017-05-15T16:59:06.834Z,6032
2017-05-15T17:00:07.551Z,5248
2017-05-15T17:01:08.285Z,2948
2017-05-15T17:02:09.012Z,3452
2017-05-15T17:03:09.933Z,4496
2017-05-15T17:04:10.653Z,4884
2017-05-15T17:05:11.380Z,10176
2017-05-15T17:06:12.096Z,8964
2017-05-15T17:07:12.817Z,4908
2017-05-15T17:08:13.783Z,6732
2017-05-15T17:09:14.503Z,7492
2017-05-15T17:10:15.219Z,8112
2017-05-15T17:11:15.939Z,7280
2017-05-15T17:12:16.664Z,6944
2017-05-15T17:13:17.630Z,8092
2017-05-15T17:14:18.353Z,6120
2017-05-15T17:15:19.075Z,6744
2017-05-15T17:16:19.797Z,6352
2017-05-15T17:17:20.520Z,6500
2017-05-15T17:18:21.487Z,6480
2017-05-15T17:19:22.207Z,5532
2017-05-15T17:20:22.928Z,4056
2017-05-15T17:21:23.643Z,4472
2017-05-15T17:22:24.354Z,4472
2017-05-15T17:23:25.269Z,4804
2017-05-15T17:24:25.986Z,3068
2017-05-15T17:25:26.699Z,2944
2017-05-15T17:26:27.406Z,2876
2017-05-15T17:27:28.123Z,2804
2017-05-15T17:28:29.086Z,2740
2017-05-15T17:29:29.801Z,1544
2017-05-15T17:30:30.513Z,2348
2017-05-15T17:31:31.243Z,2876
2017-05-15T17:32:31.955Z,2856
2017-05-15T17:33:32.918Z,2512
2017-05-15T17:34:33.633Z,1756
2017-05-15T17:35:34.352Z,2488
2017-05-15T17:36:35.067Z,2428
2017-05-15T17:37:35.788Z,2340
2017-05-15T17:38:36.769Z,2264
2017-05-15T17:39:37.482Z,2192
2017-05-15T17:40:38.202Z,2124
2017-05-15T17:41:38.925Z,2056
2017-05-15T17:42:39.643Z,1984
2017-05-15T17:43:40.605Z,1572
2017-05-15T17:44:41.323Z,1720
2017-05-15T17:45:42.035Z,1716
2017-05-15T17:46:42.760Z,1756
2017-05-15T17:47:43.474Z,1728
2017-05-15T17:48:44.456Z,1592
2017-05-15T17:49:45.172Z,1516
2017-05-15T17:50:45.899Z,1444
2017-05-15T17:51:46.606Z,1380
2017-05-15T17:52:47.322Z,1344
2017-05-15T17:53:48.285Z,1308
2017-05-15T17:54:48.995Z,1240
2017-05-15T17:55:49.709Z,1184
2017-05-15T17:56:50.421Z,1140
2017-05-15T17:57:51.132Z,1096
2017-05-15T17:58:52.105Z,1048
2017-05-15T17:59:52.823Z,1012
2017-05-15T18:00:53.531Z,984
2017-05-15T18:01:54.251Z,948
2017-05-15T18:02:54.970Z,924
2017-05-15T18:03:55.981Z,896
2017-05-15T18:04:56.696Z,884
2017-05-15T18:05:57.415Z,864
2017-05-15T18:06:58.122Z,840
2017-05-15T18:07:58.839Z,816
2017-05-15T18:08:59.752Z,804
2017-05-15T18:10:00.467Z,796
2017-05-15T18:11:01.182Z,780
2017-05-15T18:12:01.920Z,776
2017-05-15T18:13:02.628Z,764
2017-05-15T18:14:03.593Z,740
2017-05-15T18:15:04.325Z,720
2017-05-15T18:16:05.034Z,696
2017-05-15T18:17:05.751Z,676
2017-05-15T18:18:06.458Z,664
2017-05-15T18:19:07.419Z,648
2017-05-15T18:20:08.112Z,632
2017-05-15T18:21:08.833Z,624
2017-05-15T18:22:09.551Z,604
2017-05-15T18:23:10.253Z,572
2017-05-15T18:24:11.226Z,544
2017-05-15T18:25:11.942Z,520
2017-05-15T18:26:12.659Z,488
2017-05-15T18:27:13.367Z,468
2017-05-15T18:28:14.077Z,452
2017-05-15T18:29:15.040Z,436
2017-05-15T18:30:15.749Z,428
2017-05-15T18:31:16.457Z,412
2017-05-15T18:32:17.168Z,392
2017-05-15T18:33:17.877Z,372
2017-05-15T18:34:18.786Z,360
2017-05-15T18:35:19.497Z,348
2017-05-15T18:36:20.211Z,336
2017-05-15T18:37:20.934Z,324
2017-05-15T18:38:21.676Z,316
2017-05-15T18:39:22.638Z,300
2017-05-15T18:40:23.347Z,280
2017-05-15T18:41:24.061Z,264
2017-05-15T18:42:24.765Z,244
2017-05-15T18:43:25.474Z,228
2017-05-15T18:44:26.487Z,212
2017-05-15T18:45:27.208Z,196
2017-05-15T18:46:27.919Z,188
2017-05-15T18:47:28.639Z,176
2017-05-15T18:48:29.353Z,160
2017-05-15T18:49:30.265Z,148
2017-05-15T18:50:30.977Z,136
2017-05-15T18:51:31.683Z,128
2017-05-15T18:52:32.392Z,112
2017-05-15T18:53:33.113Z,104
2017-05-15T18:54:34.071Z,92
2017-05-15T18:55:34.779Z,80
2017-05-15T18:56:35.491Z,72
2017-05-15T18:57:36.200Z,64
2017-05-15T18:58:36.910Z,60
2017-05-15T18:59:37.869Z,52
2017-05-15T19:00:38.585Z,48
2017-05-15T19:01:39.296Z,40
2017-05-15T19:02:40.009Z,36
2017-05-15T19:03:40.718Z,32
2017-05-15T19:04:41.680Z,28
2017-05-15T19:05:42.392Z,24
2017-05-15T19:06:43.098Z,20
2017-05-15T19:07:43.807Z,20
2017-05-15T19:08:44.523Z,16
2017-05-15T19:09:45.432Z,16
2017-05-15T19:10:46.132Z,12
2017-05-15T19:11:46.839Z,12
2017-05-15T19:12:47.550Z,8
2017-05-15T19:13:48.255Z,4
2017-05-15T19:14:49.217Z,8
2017-05-15T19:15:49.930Z,8
2017-05-15T19:16:50.643Z,8
2017-05-15T19:17:51.355Z,4
2017-05-15T19:18:52.077Z,4
2017-05-15T19:19:53.033Z,4
2017-05-15T19:20:53.737Z,0
2017-05-15T19:21:54.443Z,4
2017-05-15T19:22:55.156Z,4
2017-05-15T19:23:55.897Z,4
2017-05-15T19:24:56.864Z,4
2017-05-15T19:25:57.568Z,4
2017-05-15T19:26:58.282Z,4
2017-05-15T19:27:58.989Z,0
2017-05-15T19:28:59.698Z,0
2017-05-15T19:30:00.659Z,0
2017-05-15T19:31:01.361Z,0
2017-05-15T19:32:02.072Z,0
2017-05-15T19:33:02.780Z,0
2017-05-15T19:34:03.487Z,0
2017-05-15T19:35:04.441Z,0
2017-05-15T19:36:05.147Z,0
2017-05-15T19:37:05.850Z,0
2017-05-15T19:38:06.556Z,0
2017-05-15T19:39:07.262Z,0
2017-05-15T19:40:08.232Z,0
2017-05-15T19:41:08.946Z,0
2017-05-15T19:42:09.648Z,0
2017-05-15T19:43:10.353Z,0
2017-05-15T19:44:11.061Z,0
2017-05-15T19:45:12.016Z,0
2017-05-15T19:46:12.718Z,0
2017-05-15T19:47:13.423Z,0
2017-05-15T19:48:14.130Z,0
2017-05-15T19:49:14.833Z,0
2017-05-15T19:50:15.795Z,0
2017-05-15T19:51:16.504Z,0
2017-05-15T19:52:17.215Z,0
2017-05-15T19:53:17.920Z,0
2017-05-15T19:54:18.621Z,0
2017-05-15T19:55:19.581Z,0
2017-05-15T19:56:20.285Z,0
2017-05-15T19:57:20.988Z,0
2017-05-15T19:58:21.691Z,0
2017-05-15T19:59:22.407Z,0
2017-05-15T20:00:23.314Z,0
2017-05-15T20:01:24.017Z,0
2017-05-15T20:02:24.720Z,0
2017-05-15T20:03:25.425Z,0
2017-05-15T20:04:26.127Z,0
2017-05-15T20:05:27.080Z,0
2017-05-15T20:06:27.788Z,0
2017-05-15T20:07:28.507Z,0
2017-05-15T20:08:29.222Z,0
2017-05-15T20:09:29.935Z,0
2017-05-15T20:10:30.888Z,0
2017-05-15T20:11:31.593Z,0
2017-05-15T20:12:32.299Z,0
2017-05-15T20:13:33.011Z,0
2017-05-15T20:14:33.721Z,0
2017-05-15T20:15:34.674Z,0
2017-05-15T20:16:35.379Z,0
2017-05-15T20:17:36.087Z,0
2017-05-15T20:18:36.796Z,0
2017-05-15T20:19:37.506Z,0
2017-05-15T20:20:38.410Z,0
2017-05-15T20:21:39.113Z,0
2017-05-15T20:22:39.823Z,0
2017-05-15T20:23:40.537Z,0
2017-05-15T20:24:41.242Z,0
2017-05-15T20:25:42.197Z,0
2017-05-15T20:26:42.908Z,0
2017-05-15T20:27:43.610Z,0
2017-05-15T20:28:44.312Z,0
2017-05-15T20:29:45.013Z,0
2017-05-15T20:30:45.913Z,0
2017-05-15T20:31:46.620Z,0
2017-05-15T20:32:47.325Z,0
2017-05-15T20:33:48.031Z,0
2017-05-15T20:34:48.742Z,0
2017-05-15T20:35:49.696Z,0
2017-05-15T20:36:50.408Z,0
2017-05-15T20:37:51.117Z,0
2017-05-15T20:38:51.820Z,0
2017-05-15T20:39:52.523Z,0
2017-05-15T20:40:53.428Z,0
2017-05-15T20:41:54.138Z,0
2017-05-15T20:42:54.838Z,0
2017-05-15T20:43:55.546Z,0
2017-05-15T20:44:56.245Z,0
2017-05-15T20:45:57.205Z,0
2017-05-15T20:46:57.914Z,0
2017-05-15T20:47:58.617Z,0
2017-05-15T20:48:59.324Z,0
2017-05-15T20:50:00.031Z,0
2017-05-15T20:51:00.989Z,0
2017-05-15T20:52:01.694Z,0
2017-05-15T20:53:02.429Z,0
2017-05-15T20:54:03.142Z,0
2017-05-15T20:55:03.845Z,0
2017-05-15T20:56:04.797Z,0
2017-05-15T20:57:05.498Z,0
2017-05-15T20:58:06.204Z,0
2017-05-15T20:59:06.921Z,0
2017-05-15T21:00:07.624Z,0
2017-05-15T21:01:08.526Z,0
2017-05-15T21:02:09.228Z,0
2017-05-15T21:03:09.933Z,0
2017-05-15T21:04:10.638Z,0
2017-05-15T21:05:11.339Z,0
2017-05-15T21:06:12.243Z,0
2017-05-15T21:07:12.951Z,0
2017-05-15T21:08:13.652Z,0
2017-05-15T21:09:14.358Z,0
2017-05-15T21:10:15.096Z,0
2017-05-15T21:11:16.058Z,0
2017-05-15T21:12:16.761Z,0
2017-05-15T21:13:17.464Z,0
2017-05-15T21:14:18.167Z,0
2017-05-15T21:15:18.868Z,0
2017-05-15T21:16:19.822Z,0
2017-05-15T21:17:20.523Z,0
2017-05-15T21:18:21.224Z,0
2017-05-15T21:19:21.926Z,0
2017-05-15T21:20:22.627Z,0
2017-05-15T21:21:23.578Z,0
2017-05-15T21:22:24.279Z,0
2017-05-15T21:23:24.991Z,0
2017-05-15T21:24:25.707Z,0
2017-05-15T21:25:26.405Z,0
2017-05-15T21:26:27.313Z,0
2017-05-15T21:27:28.019Z,0
2017-05-15T21:28:28.721Z,0
2017-05-15T21:29:29.423Z,0
2017-05-15T21:30:30.126Z,0
2017-05-15T21:31:31.029Z,0
2017-05-15T21:32:31.732Z,0
2017-05-15T21:33:32.436Z,0
2017-05-15T21:34:33.139Z,0
2017-05-15T21:35:33.842Z,0
2017-05-15T21:36:34.740Z,0
2017-05-15T21:37:35.456Z,0
2017-05-15T21:38:36.163Z,0
2017-05-15T21:39:36.871Z,0
2017-05-15T21:40:37.575Z,0
2017-05-15T21:41:38.485Z,0
2017-05-15T21:42:39.193Z,0
2017-05-15T21:43:39.892Z,0
2017-05-15T21:44:40.602Z,0
2017-05-15T21:45:41.305Z,0
2017-05-15T21:46:42.209Z,0
2017-05-15T21:47:42.919Z,0
2017-05-15T21:48:43.623Z,0
2017-05-15T21:49:44.329Z,0
2017-05-15T21:50:45.032Z,0
2017-05-15T21:51:45.934Z,0
2017-05-15T21:52:46.635Z,0
2017-05-15T21:53:47.336Z,0
2017-05-15T21:54:48.038Z,0
2017-05-15T21:55:48.745Z,0
2017-05-15T21:56:49.697Z,0
2017-05-15T21:57:50.404Z,0
2017-05-15T21:58:51.109Z,0
2017-05-15T21:59:51.820Z,0
2017-05-15T22:00:52.522Z,0
2017-05-15T22:01:53.424Z,0
2017-05-15T22:02:54.130Z,0
2017-05-15T22:03:54.836Z,0
2017-05-15T22:04:55.537Z,0
2017-05-15T22:05:56.238Z,0
2017-05-15T22:06:57.140Z,0
2017-05-15T22:07:57.841Z,0
2017-05-15T22:08:58.538Z,0
2017-05-15T22:09:59.237Z,0
2017-05-15T22:10:59.939Z,0
2017-05-15T22:12:00.889Z,0
2017-05-15T22:13:01.588Z,0
2017-05-15T22:14:02.290Z,0
2017-05-15T22:15:02.996Z,0
2017-05-15T22:16:03.698Z,0
2017-05-15T22:17:04.599Z,0
2017-05-15T22:18:05.301Z,0
2017-05-15T22:19:06.004Z,0
2017-05-15T22:20:06.709Z,0
2017-05-15T22:21:07.410Z,0
2017-05-15T22:22:08.319Z,0
2017-05-15T22:23:09.020Z,0
2017-05-15T22:24:09.734Z,0
2017-05-15T22:25:10.433Z,0
2017-05-15T22:26:11.138Z,0
2017-05-15T22:27:12.100Z,0
2017-05-15T22:28:12.801Z,0
2017-05-15T22:29:13.499Z,0
2017-05-15T22:30:14.203Z,0
2017-05-15T22:31:14.905Z,0
2017-05-15T22:32:15.806Z,0
2017-05-15T22:33:16.509Z,0
2017-05-15T22:34:17.209Z,0
2017-05-15T22:35:17.912Z,0
2017-05-15T22:36:18.615Z,0
2017-05-15T22:37:19.585Z,0
2017-05-15T22:38:20.287Z,0
2017-05-15T22:39:20.987Z,0
2017-05-15T22:40:21.693Z,0
2017-05-15T22:41:22.394Z,0
2017-05-15T22:42:23.296Z,0
2017-05-15T22:43:24.002Z,0
2017-05-15T22:44:24.707Z,0
2017-05-15T22:45:25.412Z,0
2017-05-15T22:46:26.112Z,0
2017-05-15T22:47:27.065Z,0
2017-05-15T22:48:27.765Z,0
2017-05-15T22:49:28.469Z,0
2017-05-15T22:50:29.170Z,0
2017-05-15T22:51:29.870Z,0
2017-05-15T22:52:30.819Z,0
2017-05-15T22:53:31.520Z,0
2017-05-15T22:54:32.221Z,0
2017-05-15T22:55:32.924Z,0
2017-05-15T22:56:33.627Z,0
2017-05-15T22:57:34.536Z,0
2017-05-15T22:58:35.249Z,0
2017-05-15T22:59:35.957Z,0
2017-05-15T23:00:36.688Z,0
2017-05-15T23:01:37.394Z,0
2017-05-15T23:02:38.347Z,0
2017-05-15T23:03:39.047Z,0
2017-05-15T23:04:39.753Z,0
2017-05-15T23:05:40.454Z,0
2017-05-15T23:06:41.151Z,0
2017-05-15T23:07:42.051Z,0
2017-05-15T23:08:42.754Z,0
2017-05-15T23:09:43.458Z,0
2017-05-15T23:10:44.162Z,0
2017-05-15T23:11:44.860Z,0
2017-05-15T23:12:45.767Z,0
2017-05-15T23:13:46.464Z,0
2017-05-15T23:14:47.166Z,0
2017-05-15T23:15:47.865Z,0
2017-05-15T23:16:48.568Z,0
2017-05-15T23:17:49.472Z,0
2017-05-15T23:18:50.184Z,0
2017-05-15T23:19:50.895Z,0
2017-05-15T23:20:51.595Z,0
2017-05-15T23:21:52.291Z,0
2017-05-15T23:22:53.250Z,0
2017-05-15T23:23:53.952Z,0
2017-05-15T23:24:54.653Z,0
2017-05-15T23:25:55.355Z,0
2017-05-15T23:26:56.055Z,0
2017-05-15T23:27:57.008Z,0
2017-05-15T23:28:57.705Z,0
2017-05-15T23:29:58.404Z,0
2017-05-15T23:30:59.110Z,0
2017-05-15T23:31:59.810Z,0
2017-05-15T23:33:00.709Z,0
2017-05-15T23:34:01.409Z,0
2017-05-15T23:35:02.115Z,0
2017-05-15T23:36:02.814Z,0
2017-05-15T23:37:03.514Z,0
2017-05-15T23:38:04.467Z,0
2017-05-15T23:39:05.169Z,0
2017-05-15T23:40:05.870Z,0
2017-05-15T23:41:06.570Z,0
2017-05-15T23:42:07.275Z,0
2017-05-15T23:43:08.225Z,0
2017-05-15T23:44:08.927Z,0
2017-05-15T23:45:09.628Z,0
2017-05-15T23:46:10.333Z,0
2017-05-15T23:47:11.034Z,0
2017-05-15T23:48:11.985Z,0
2017-05-15T23:49:12.681Z,0
2017-05-15T23:50:13.382Z,0
2017-05-15T23:51:14.091Z,0
2017-05-15T23:52:14.792Z,0
2017-05-15T23:53:15.747Z,0
2017-05-15T23:54:16.444Z,0
2017-05-15T23:55:17.147Z,0
2017-05-15T23:56:17.849Z,0
2017-05-15T23:57:18.550Z,0
2017-05-15T23:58:19.505Z,0
2017-05-15T23:59:20.206Z,0
